createdAt,value
2017-06-20T00:01:23.338Z,17.80
2017-06-20T00:03:51.185Z,17.70
2017-06-20T00:06:19.395Z,17.70
2017-06-20T00:08:47.741Z,17.50
2017-06-20T00:11:15.398Z,17.40
2017-06-20T00:13:43.468Z,17.30
2017-06-20T00:16:11.342Z,17.30
2017-06-20T00:18:39.919Z,17.30
2017-06-20T00:21:07.785Z,17.40
2017-06-20T00:23:35.650Z,17.50
2017-06-20T00:26:03.720Z,17.60
2017-06-20T00:28:33.124Z,17.70
2017-06-20T00:31:01.761Z,17.70
2017-06-20T00:33:29.572Z,17.70
2017-06-20T00:35:57.439Z,17.50
2017-06-20T00:38:26.031Z,17.60
2017-06-20T00:40:53.814Z,17.60
2017-06-20T00:43:21.549Z,17.60
2017-06-20T00:45:50.652Z,17.60
2017-06-20T00:48:18.510Z,17.50
2017-06-20T00:50:46.274Z,17.50
2017-06-20T00:53:14.652Z,17.40
2017-06-20T00:55:42.518Z,17.40
2017-06-20T00:58:10.384Z,17.30
2017-06-20T01:00:38.147Z,17.30
2017-06-20T01:03:06.017Z,17.30
2017-06-20T01:05:34.422Z,17.20
2017-06-20T01:08:02.429Z,17.10
2017-06-20T01:10:30.456Z,17.00
2017-06-20T01:12:58.400Z,16.90
2017-06-20T01:15:26.223Z,16.90
2017-06-20T01:17:53.920Z,16.80
2017-06-20T01:20:21.992Z,16.70
2017-06-20T01:22:50.197Z,16.70
2017-06-20T01:25:19.369Z,16.60
2017-06-20T01:27:47.236Z,16.50
2017-06-20T01:30:16.570Z,16.60
2017-06-20T01:32:44.101Z,16.50
2017-06-20T01:35:12.062Z,16.40
2017-06-20T01:37:40.339Z,16.40
2017-06-20T01:40:08.204Z,16.40
2017-06-20T01:42:35.967Z,16.40
2017-06-20T01:45:03.964Z,16.40
2017-06-20T01:47:32.212Z,16.40
2017-06-20T01:50:00.629Z,16.40
2017-06-20T01:52:28.665Z,16.40
2017-06-20T01:54:56.857Z,16.40
2017-06-20T01:57:25.316Z,16.30
2017-06-20T01:59:53.855Z,16.30
2017-06-20T02:02:22.438Z,16.30
2017-06-20T02:04:51.371Z,16.30
2017-06-20T02:07:19.370Z,16.30
2017-06-20T02:09:47.309Z,16.30
2017-06-20T02:12:15.569Z,16.30
2017-06-20T02:14:44.167Z,16.20
2017-06-20T02:17:12.265Z,16.30
2017-06-20T02:19:40.514Z,16.20
2017-06-20T02:22:09.404Z,16.20
2017-06-20T02:24:37.372Z,16.20
2017-06-20T02:27:05.341Z,16.20
2017-06-20T02:29:34.008Z,16.10
2017-06-20T02:32:01.999Z,15.90
2017-06-20T02:34:29.553Z,15.80
2017-06-20T02:36:58.107Z,15.70
2017-06-20T02:39:26.426Z,15.80
2017-06-20T02:41:54.241Z,15.80
2017-06-20T02:44:22.246Z,15.90
2017-06-20T02:46:50.098Z,15.90
2017-06-20T02:49:17.978Z,15.90
2017-06-20T02:51:46.603Z,15.90
2017-06-20T02:54:14.633Z,15.90
2017-06-20T02:56:42.547Z,15.70
2017-06-20T02:59:10.384Z,15.70
2017-06-20T03:01:38.665Z,15.70
2017-06-20T03:04:06.813Z,15.60
2017-06-20T03:06:34.759Z,15.60
2017-06-20T03:09:03.063Z,15.60
2017-06-20T03:11:31.085Z,15.60
2017-06-20T03:14:00.082Z,15.60
2017-06-20T03:16:28.301Z,15.70
2017-06-20T03:18:56.170Z,15.70
2017-06-20T03:21:25.243Z,15.70
2017-06-20T03:23:53.019Z,15.60
2017-06-20T03:26:21.519Z,15.60
2017-06-20T03:28:49.694Z,15.70
2017-06-20T03:31:17.723Z,15.70
2017-06-20T03:33:46.337Z,15.60
2017-06-20T03:36:14.471Z,15.50
2017-06-20T03:38:42.368Z,15.50
2017-06-20T03:41:10.336Z,15.40
2017-06-20T03:43:38.304Z,15.40
2017-06-20T03:46:06.171Z,15.30
2017-06-20T03:48:33.934Z,15.20
2017-06-20T03:51:01.904Z,15.20
2017-06-20T03:53:29.672Z,15.20
2017-06-20T03:55:57.385Z,15.20
2017-06-20T03:58:25.495Z,15.30
2017-06-20T04:00:53.236Z,15.30
2017-06-20T04:03:22.259Z,15.40
2017-06-20T04:05:51.380Z,15.50
2017-06-20T04:08:19.218Z,15.40
2017-06-20T04:10:47.515Z,15.50
2017-06-20T04:13:15.359Z,15.60
2017-06-20T04:15:44.153Z,15.60
2017-06-20T04:18:12.025Z,15.60
2017-06-20T04:20:40.363Z,15.70
2017-06-20T04:23:08.174Z,15.80
2017-06-20T04:25:35.987Z,15.90
2017-06-20T04:28:04.265Z,15.90
2017-06-20T04:30:32.509Z,16.00
2017-06-20T04:32:59.993Z,16.00
2017-06-20T04:35:28.889Z,16.10
2017-06-20T04:37:57.134Z,16.20
2017-06-20T04:40:24.617Z,16.20
2017-06-20T04:42:52.881Z,16.30
2017-06-20T04:45:20.361Z,16.40
2017-06-20T04:47:47.841Z,16.40
2017-06-20T04:50:15.341Z,16.50
2017-06-20T04:52:42.817Z,16.60
2017-06-20T04:55:11.061Z,17.00
2017-06-20T04:57:38.573Z,16.90
2017-06-20T05:00:06.654Z,17.20
2017-06-20T05:02:34.545Z,17.30
2017-06-20T05:05:02.186Z,17.50
2017-06-20T05:07:29.678Z,18.00
2017-06-20T05:09:57.158Z,19.20
2017-06-20T05:12:25.421Z,21.40
2017-06-20T05:14:52.894Z,21.30
2017-06-20T05:17:21.138Z,22.30
2017-06-20T05:19:48.655Z,22.20
2017-06-20T05:22:16.153Z,22.90
2017-06-20T05:24:43.709Z,23.40
2017-06-20T05:27:11.213Z,23.90
2017-06-20T05:29:39.449Z,24.60
2017-06-20T05:32:06.918Z,24.60
2017-06-20T05:34:34.409Z,25.00
2017-06-20T05:37:01.882Z,25.30
2017-06-20T05:39:29.413Z,25.40
2017-06-20T05:41:57.673Z,26.40
2017-06-20T05:44:25.151Z,26.40
2017-06-20T05:46:53.389Z,28.10
2017-06-20T05:49:20.974Z,28.00
2017-06-20T05:51:49.217Z,29.00
2017-06-20T05:54:16.685Z,29.00
2017-06-20T05:56:44.177Z,29.40
2017-06-20T05:59:11.649Z,29.20
2017-06-20T06:01:39.120Z,28.70
2017-06-20T06:04:06.610Z,28.20
2017-06-20T06:06:34.077Z,28.00
2017-06-20T06:09:01.549Z,28.30
2017-06-20T06:11:29.809Z,28.90
2017-06-20T06:13:58.070Z,29.40
2017-06-20T06:16:25.547Z,29.40
2017-06-20T06:18:53.047Z,30.00
2017-06-20T06:21:20.569Z,30.10
2017-06-20T06:23:48.821Z,29.90
2017-06-20T06:26:16.554Z,29.90
2017-06-20T06:28:44.024Z,30.20
2017-06-20T06:31:11.497Z,30.20
2017-06-20T06:33:38.990Z,29.90
2017-06-20T06:36:07.237Z,30.30
2017-06-20T06:38:34.709Z,30.20
2017-06-20T06:41:02.974Z,30.60
2017-06-20T06:43:30.482Z,30.60
2017-06-20T06:45:57.953Z,30.80
2017-06-20T06:48:25.450Z,30.80
2017-06-20T06:50:52.935Z,31.30
2017-06-20T06:53:20.431Z,31.20
2017-06-20T06:55:47.935Z,31.20
2017-06-20T06:58:16.170Z,31.30
2017-06-20T07:00:43.641Z,31.20
2017-06-20T07:03:11.133Z,31.20
2017-06-20T07:05:38.606Z,31.30
2017-06-20T07:08:06.079Z,31.20
2017-06-20T07:10:33.582Z,31.30
2017-06-20T07:13:01.053Z,31.70
2017-06-20T07:15:29.305Z,31.50
2017-06-20T07:17:56.806Z,31.50
2017-06-20T07:20:24.277Z,31.60
2017-06-20T07:22:51.746Z,31.90
2017-06-20T07:25:19.246Z,31.80
2017-06-20T07:27:47.490Z,32.00
2017-06-20T07:30:14.966Z,31.90
2017-06-20T07:32:42.794Z,32.10
2017-06-20T07:35:10.266Z,32.30
2017-06-20T07:37:37.741Z,32.60
2017-06-20T07:40:05.237Z,33.00
2017-06-20T07:42:32.715Z,33.00
2017-06-20T07:45:00.193Z,33.20
2017-06-20T07:47:27.694Z,33.60
2017-06-20T07:49:55.169Z,33.90
2017-06-20T07:52:22.648Z,34.10
2017-06-20T07:54:50.141Z,34.40
2017-06-20T07:57:17.617Z,34.80
2017-06-20T07:59:46.249Z,35.40
2017-06-20T08:02:13.737Z,35.10
2017-06-20T08:04:41.212Z,34.50
2017-06-20T08:07:08.681Z,35.00
2017-06-20T08:09:36.177Z,35.70
2017-06-20T08:12:03.651Z,35.90
2017-06-20T08:14:31.151Z,36.90
2017-06-20T08:16:58.659Z,37.70
2017-06-20T08:19:26.133Z,37.60
2017-06-20T08:22:09.313Z,37.80
2017-06-20T08:24:36.797Z,38.30
2017-06-20T08:27:04.273Z,38.60
2017-06-20T08:29:31.775Z,39.10
2017-06-20T08:31:59.254Z,39.10
2017-06-20T08:34:26.726Z,38.80
2017-06-20T08:36:54.218Z,38.50
2017-06-20T08:39:21.691Z,38.40
2017-06-20T08:41:49.936Z,38.40
2017-06-20T08:44:17.450Z,38.40
2017-06-20T08:46:44.929Z,38.60
2017-06-20T08:49:12.433Z,39.00
2017-06-20T08:51:40.964Z,38.50
2017-06-20T08:54:08.445Z,38.50
2017-06-20T08:56:35.922Z,38.40
2017-06-20T08:59:03.413Z,38.40
2017-06-20T09:01:30.890Z,38.00
2017-06-20T09:03:58.365Z,37.70
2017-06-20T09:06:25.858Z,37.50
2017-06-20T09:08:54.104Z,37.10
2017-06-20T09:11:21.573Z,37.10
2017-06-20T09:13:49.069Z,37.10
2017-06-20T09:16:16.565Z,37.40
2017-06-20T09:18:44.038Z,37.80
2017-06-20T09:21:11.533Z,38.20
2017-06-20T09:23:39.006Z,38.20
2017-06-20T09:26:06.545Z,37.70
2017-06-20T09:28:34.343Z,37.50
2017-06-20T09:31:01.837Z,37.60
2017-06-20T09:33:29.313Z,37.70
2017-06-20T09:35:57.631Z,37.60
2017-06-20T09:38:25.107Z,37.60
2017-06-20T09:40:52.582Z,37.60
2017-06-20T09:43:25.554Z,37.40
2017-06-20T09:45:53.025Z,37.60
2017-06-20T09:48:20.497Z,38.00
2017-06-20T09:50:47.991Z,37.90
2017-06-20T09:53:15.470Z,38.00
2017-06-20T09:55:42.945Z,38.20
2017-06-20T09:58:10.453Z,38.30
2017-06-20T10:00:37.949Z,38.40
2017-06-20T10:03:05.425Z,38.50
2017-06-20T10:05:32.918Z,38.50
2017-06-20T10:08:00.409Z,38.50
2017-06-20T10:10:27.888Z,38.30
2017-06-20T10:12:55.381Z,38.30
2017-06-20T10:15:23.624Z,38.70
2017-06-20T10:17:51.146Z,38.70
2017-06-20T10:20:18.649Z,39.00
2017-06-20T10:22:46.123Z,39.00
2017-06-20T10:25:14.365Z,38.90
2017-06-20T10:27:41.865Z,38.90
2017-06-20T10:30:10.383Z,39.00
2017-06-20T10:32:37.862Z,39.00
2017-06-20T10:35:05.355Z,38.40
2017-06-20T10:37:33.597Z,39.10
2017-06-20T10:40:01.073Z,39.20
2017-06-20T10:42:29.666Z,39.40
2017-06-20T10:44:57.910Z,38.20
2017-06-20T10:47:25.381Z,38.20
2017-06-20T10:49:52.876Z,38.30
2017-06-20T10:52:20.349Z,38.40
2017-06-20T10:54:47.821Z,38.30
2017-06-20T10:57:15.438Z,38.60
2017-06-20T10:59:43.673Z,38.50
2017-06-20T11:02:11.198Z,38.50
2017-06-20T11:04:38.694Z,38.10
2017-06-20T11:07:06.168Z,38.00
2017-06-20T11:09:34.406Z,38.90
2017-06-20T11:12:01.898Z,38.90
2017-06-20T11:14:29.368Z,39.00
2017-06-20T11:16:57.609Z,39.90
2017-06-20T11:19:25.121Z,39.80
2017-06-20T11:21:52.601Z,40.20
2017-06-20T11:24:20.077Z,39.90
2017-06-20T11:26:47.820Z,38.80
2017-06-20T11:29:15.297Z,37.50
2017-06-20T11:31:42.777Z,37.80
2017-06-20T11:34:11.053Z,38.90
2017-06-20T11:36:39.297Z,38.50
2017-06-20T11:39:06.774Z,38.40
2017-06-20T11:41:34.266Z,38.60
2017-06-20T11:44:01.739Z,38.90
2017-06-20T11:46:29.213Z,39.50
2017-06-20T11:48:56.709Z,39.40
2017-06-20T11:51:24.181Z,39.80
2017-06-20T11:53:52.429Z,40.00
2017-06-20T11:56:20.070Z,40.00
2017-06-20T11:58:47.546Z,39.40
2017-06-20T12:01:15.025Z,39.70
2017-06-20T12:03:43.286Z,39.60
2017-06-20T12:06:10.758Z,39.60
2017-06-20T12:08:38.997Z,40.40
2017-06-20T12:11:06.490Z,40.40
2017-06-20T12:13:34.738Z,40.50
2017-06-20T12:16:02.214Z,40.40
2017-06-20T12:18:29.709Z,40.60
2017-06-20T12:20:57.186Z,39.80
2017-06-20T12:23:24.658Z,39.60
2017-06-20T12:25:52.157Z,39.50
2017-06-20T12:28:20.398Z,39.40
2017-06-20T12:30:47.871Z,39.40
2017-06-20T12:33:15.365Z,39.50
2017-06-20T12:35:42.846Z,39.60
2017-06-20T12:38:10.322Z,39.10
2017-06-20T12:40:37.821Z,38.70
2017-06-20T12:43:06.068Z,38.50
2017-06-20T12:45:33.537Z,38.50
2017-06-20T12:48:01.038Z,38.40
2017-06-20T12:50:28.514Z,38.40
2017-06-20T12:52:55.993Z,38.40
2017-06-20T12:55:23.497Z,37.80
2017-06-20T12:57:50.971Z,37.80
2017-06-20T13:00:18.450Z,38.00
2017-06-20T13:02:45.950Z,37.90
2017-06-20T13:05:14.193Z,37.40
2017-06-20T13:07:41.670Z,37.40
2017-06-20T13:10:09.273Z,37.20
2017-06-20T13:12:36.752Z,37.10
2017-06-20T13:15:04.230Z,37.00
2017-06-20T13:17:31.729Z,36.40
2017-06-20T13:19:59.203Z,36.20
2017-06-20T13:22:26.675Z,36.10
2017-06-20T13:24:54.169Z,35.60
2017-06-20T13:27:21.658Z,35.20
2017-06-20T13:29:49.130Z,34.80
2017-06-20T13:32:16.738Z,34.80
2017-06-20T13:34:44.278Z,34.90
2017-06-20T13:37:11.801Z,34.90
2017-06-20T13:39:39.578Z,34.90
2017-06-20T13:42:07.078Z,35.10
2017-06-20T13:44:34.666Z,35.10
2017-06-20T13:47:02.246Z,35.20
2017-06-20T13:49:29.751Z,35.20
2017-06-20T13:51:57.226Z,34.90
2017-06-20T13:54:25.489Z,34.80
2017-06-20T13:56:53.052Z,34.80
2017-06-20T13:59:21.305Z,34.60
2017-06-20T14:01:48.881Z,34.50
2017-06-20T14:04:16.358Z,34.50
2017-06-20T14:06:43.833Z,34.30
2017-06-20T14:09:11.439Z,34.40
2017-06-20T14:11:38.930Z,34.30
2017-06-20T14:14:06.729Z,34.20
2017-06-20T14:16:34.227Z,34.30
2017-06-20T14:19:01.774Z,34.20
2017-06-20T14:21:29.257Z,34.30
2017-06-20T14:23:57.518Z,34.40
2017-06-20T14:26:25.097Z,34.30
2017-06-20T14:28:53.484Z,34.70
2017-06-20T14:31:21.122Z,34.70
2017-06-20T14:33:48.837Z,34.70
2017-06-20T14:36:16.500Z,34.60
2017-06-20T14:38:44.029Z,34.50
2017-06-20T14:41:11.509Z,34.40
2017-06-20T14:43:38.985Z,34.50
2017-06-20T14:46:06.485Z,34.40
2017-06-20T14:48:34.725Z,34.40
2017-06-20T14:51:02.197Z,34.30
2017-06-20T14:53:29.693Z,34.40
2017-06-20T14:55:57.177Z,34.30
2017-06-20T14:58:24.657Z,34.40
2017-06-20T15:00:52.157Z,34.40
2017-06-20T15:03:19.633Z,34.50
2017-06-20T15:05:47.125Z,34.60
2017-06-20T15:08:14.666Z,34.60
2017-06-20T15:10:42.149Z,34.60
2017-06-20T15:13:09.625Z,34.40
2017-06-20T15:15:37.889Z,34.20
2017-06-20T15:18:05.361Z,34.20
2017-06-20T15:20:33.598Z,34.00
2017-06-20T15:23:01.344Z,33.90
2017-06-20T15:25:28.822Z,33.80
2017-06-20T15:27:56.304Z,33.80
2017-06-20T15:30:23.803Z,33.60
2017-06-20T15:32:51.281Z,33.40
2017-06-20T15:35:19.037Z,33.30
2017-06-20T15:37:46.537Z,33.40
2017-06-20T15:40:14.117Z,33.50
2017-06-20T15:42:42.357Z,33.60
2017-06-20T15:45:09.849Z,33.60
2017-06-20T15:47:38.090Z,33.40
2017-06-20T15:50:05.566Z,33.30
2017-06-20T15:52:33.833Z,32.70
2017-06-20T15:55:02.090Z,32.80
2017-06-20T15:57:29.564Z,32.80
2017-06-20T15:59:57.065Z,32.90
2017-06-20T16:02:24.540Z,33.00
2017-06-20T16:04:52.076Z,33.10
2017-06-20T16:07:19.813Z,33.10
2017-06-20T16:09:48.059Z,32.70
2017-06-20T16:12:15.537Z,32.70
2017-06-20T16:14:43.357Z,32.80
2017-06-20T16:17:10.874Z,32.90
2017-06-20T16:19:39.114Z,32.90
2017-06-20T16:22:06.632Z,32.90
2017-06-20T16:24:34.098Z,32.90
2017-06-20T16:27:01.573Z,32.70
2017-06-20T16:29:29.061Z,32.70
2017-06-20T16:31:56.533Z,32.80
2017-06-20T16:34:24.773Z,32.70
2017-06-20T16:36:52.514Z,32.70
2017-06-20T16:39:19.989Z,32.70
2017-06-20T16:41:47.461Z,32.60
2017-06-20T16:44:14.957Z,32.50
2017-06-20T16:46:42.435Z,32.50
2017-06-20T16:49:10.206Z,32.50
2017-06-20T16:51:37.705Z,32.40
2017-06-20T16:54:05.186Z,32.30
2017-06-20T16:56:33.430Z,32.10
2017-06-20T16:59:00.925Z,32.10
2017-06-20T17:01:28.398Z,32.10
2017-06-20T17:03:55.873Z,32.10
2017-06-20T17:06:23.369Z,32.20
2017-06-20T17:08:50.841Z,32.20
2017-06-20T17:11:19.086Z,32.20
2017-06-20T17:13:46.581Z,32.20
2017-06-20T17:16:14.058Z,32.20
2017-06-20T17:18:41.534Z,32.10
2017-06-20T17:21:09.033Z,32.00
2017-06-20T17:23:37.281Z,32.00
2017-06-20T17:26:04.758Z,32.00
2017-06-20T17:28:32.262Z,32.00
2017-06-20T17:30:59.745Z,31.90
2017-06-20T17:33:27.223Z,31.80
2017-06-20T17:35:54.949Z,31.70
2017-06-20T17:38:22.430Z,31.60
2017-06-20T17:40:49.906Z,31.60
2017-06-20T17:43:17.626Z,31.50
2017-06-20T17:45:45.117Z,31.40
2017-06-20T17:48:12.596Z,31.40
2017-06-20T17:50:40.871Z,31.20
2017-06-20T17:53:09.113Z,31.10
2017-06-20T17:55:36.854Z,31.10
2017-06-20T17:58:04.353Z,31.10
2017-06-20T18:00:31.825Z,31.10
2017-06-20T18:02:59.336Z,31.00
2017-06-20T18:05:26.835Z,30.90
2017-06-20T18:07:55.095Z,30.70
2017-06-20T18:10:22.725Z,30.60
2017-06-20T18:12:50.217Z,30.60
2017-06-20T18:15:17.693Z,30.50
2017-06-20T18:17:45.937Z,30.40
2017-06-20T18:20:13.437Z,30.40
2017-06-20T18:22:40.917Z,30.40
2017-06-20T18:25:08.393Z,30.30
2017-06-20T18:27:35.886Z,30.30
2017-06-20T18:30:04.131Z,30.00
2017-06-20T18:32:31.601Z,30.00
2017-06-20T18:34:59.103Z,29.90
2017-06-20T18:37:26.582Z,29.90
2017-06-20T18:39:54.067Z,29.70
2017-06-20T18:42:21.568Z,29.60
2017-06-20T18:44:49.046Z,29.40
2017-06-20T18:47:16.526Z,29.30
2017-06-20T18:49:44.024Z,29.20
2017-06-20T18:52:12.273Z,28.90
2017-06-20T18:54:39.750Z,28.80
2017-06-20T18:57:08.033Z,28.80
2017-06-20T18:59:36.281Z,28.70
2017-06-20T19:02:04.017Z,28.70
2017-06-20T19:04:31.520Z,28.60
2017-06-20T19:07:00.054Z,28.40
2017-06-20T19:09:27.545Z,28.30
2017-06-20T19:11:55.048Z,28.20
2017-06-20T19:14:22.530Z,28.20
2017-06-20T19:16:50.006Z,28.10
2017-06-20T19:19:17.505Z,28.00
2017-06-20T19:21:45.749Z,27.90
2017-06-20T19:24:13.232Z,27.80
2017-06-20T19:26:41.497Z,27.60
2017-06-20T19:29:09.780Z,27.60
2017-06-20T19:31:38.029Z,27.50
2017-06-20T19:34:05.529Z,27.40
2017-06-20T19:36:33.358Z,27.30
2017-06-20T19:39:00.837Z,27.20
2017-06-20T19:41:29.534Z,27.00
2017-06-20T19:43:57.034Z,27.00
2017-06-20T19:46:25.803Z,26.90
2017-06-20T19:48:53.365Z,26.70
2017-06-20T19:51:20.916Z,26.60
2017-06-20T19:53:48.397Z,26.50
2017-06-20T19:56:15.897Z,26.40
2017-06-20T19:58:44.146Z,26.30
2017-06-20T20:01:11.626Z,26.20
2017-06-20T20:03:39.894Z,25.90
2017-06-20T20:06:08.149Z,25.90
2017-06-20T20:08:35.882Z,25.90
2017-06-20T20:11:03.385Z,25.90
2017-06-20T20:13:30.866Z,25.80
2017-06-20T20:15:58.421Z,25.70
2017-06-20T20:18:26.698Z,25.50
2017-06-20T20:20:54.942Z,25.50
2017-06-20T20:23:22.421Z,25.50
2017-06-20T20:25:50.691Z,25.40
2017-06-20T20:28:18.932Z,25.30
2017-06-20T20:30:46.657Z,25.20
2017-06-20T20:33:15.006Z,25.10
2017-06-20T20:35:43.257Z,25.10
2017-06-20T20:38:10.738Z,25.00
2017-06-20T20:40:39.026Z,24.90
2017-06-20T20:43:07.273Z,24.80
2017-06-20T20:45:34.761Z,24.80
2017-06-20T20:48:02.265Z,24.80
2017-06-20T20:50:29.745Z,24.70
2017-06-20T20:52:57.293Z,24.60
2017-06-20T20:55:24.799Z,24.50
2017-06-20T20:57:52.281Z,24.40
2017-06-20T21:00:19.765Z,24.30
2017-06-20T21:02:47.277Z,24.20
2017-06-20T21:05:14.757Z,24.20
2017-06-20T21:07:42.241Z,24.10
2017-06-20T21:10:09.741Z,24.10
2017-06-20T21:12:37.218Z,24.00
2017-06-20T21:15:04.698Z,24.00
2017-06-20T21:17:32.201Z,23.80
2017-06-20T21:20:00.445Z,23.60
2017-06-20T21:22:27.929Z,23.60
2017-06-20T21:24:56.193Z,23.20
2017-06-20T21:27:24.441Z,23.10
2017-06-20T21:29:51.921Z,23.10
2017-06-20T21:32:19.428Z,23.10
2017-06-20T21:34:46.913Z,23.10
2017-06-20T21:37:14.393Z,23.10
2017-06-20T21:39:41.895Z,23.10
2017-06-20T21:42:09.377Z,23.10
2017-06-20T21:44:36.858Z,23.10
2017-06-20T21:47:04.394Z,23.10
2017-06-20T21:49:31.873Z,23.00
2017-06-20T21:51:59.358Z,22.90
2017-06-20T21:54:27.624Z,22.80
2017-06-20T21:56:55.869Z,22.70
2017-06-20T21:59:23.350Z,22.70
2017-06-20T22:01:51.617Z,22.60
2017-06-20T22:04:19.097Z,22.60
2017-06-20T22:06:47.345Z,22.40
2017-06-20T22:09:14.845Z,22.40
2017-06-20T22:11:42.325Z,22.30
2017-06-20T22:14:09.801Z,22.20
2017-06-20T22:16:37.310Z,22.20
2017-06-20T22:19:04.790Z,22.20
2017-06-20T22:21:32.273Z,22.20
2017-06-20T22:23:59.778Z,22.10
2017-06-20T22:26:27.254Z,22.10
2017-06-20T22:28:54.738Z,22.10
2017-06-20T22:31:22.237Z,22.00
2017-06-20T22:33:50.512Z,22.00
2017-06-20T22:36:18.758Z,22.00
2017-06-20T22:38:46.258Z,22.00
2017-06-20T22:41:13.757Z,22.00
2017-06-20T22:43:41.237Z,21.90
2017-06-20T22:46:08.737Z,21.80
2017-06-20T22:48:36.216Z,21.70
2017-06-20T22:51:03.693Z,21.60
2017-06-20T22:53:31.193Z,21.50
2017-06-20T22:55:59.457Z,21.40
2017-06-20T22:58:27.700Z,21.40
2017-06-20T23:00:55.202Z,21.40
2017-06-20T23:03:23.446Z,21.20
2017-06-20T23:05:50.929Z,21.20
2017-06-20T23:08:19.449Z,21.00
2017-06-20T23:10:46.932Z,21.00
2017-06-20T23:13:14.634Z,20.90
2017-06-20T23:15:42.905Z,20.80
2017-06-20T23:18:11.149Z,20.90
2017-06-20T23:20:38.629Z,20.90
2017-06-20T23:23:06.897Z,20.80
2017-06-20T23:25:34.377Z,20.80
2017-06-20T23:28:02.174Z,20.80
2017-06-20T23:30:30.048Z,20.70
2017-06-20T23:32:57.562Z,20.80
2017-06-20T23:35:25.809Z,20.70
2017-06-20T23:37:53.309Z,20.70
2017-06-20T23:40:20.790Z,20.70
2017-06-20T23:42:48.273Z,20.60
2017-06-20T23:45:15.881Z,20.50
2017-06-20T23:47:43.365Z,20.60
2017-06-20T23:50:10.846Z,20.60
2017-06-20T23:52:38.345Z,20.60
2017-06-20T23:55:05.822Z,20.40
2017-06-20T23:57:33.345Z,20.30
